Time;durP1;ratioP1;P1;durP2;ratioP2;P2;SDS_P1;SDS_P2;PMS_P1;PMS_P2;Temp;Humidity;BMP_temperature;BMP_pressure;BME280_temperature;BME280_humidity;BME280_pressure;Samples;Min_cycle;Max_cycle;Signal;HPM_P1;HPM_P2
2023/08/06 00:04:32;;;;;;;5.30;2.75;;;;;;;23.80;61.13;99946.22;10297168;28;20047;-75
2023/08/06 00:09:32;;;;;;;6.38;2.40;;;;;;;23.77;60.93;99910.69;10296677;28;20039;-75
2023/08/06 00:14:33;;;;;;;5.85;2.63;;;;;;;24.03;59.63;99934.09;10297152;28;20054;-75
2023/08/06 00:19:34;;;;;;;7.60;2.40;;;;;;;24.27;58.32;99944.47;10296853;28;20043;-75
2023/08/06 00:24:35;;;;;;;10.25;2.88;;;;;;;24.23;59.66;99951.50;10296584;28;20047;-75
2023/08/06 00:29:36;;;;;;;4.82;2.55;;;;;;;23.90;61.86;99956.28;10295962;28;20510;-75
2023/08/06 00:34:36;;;;;;;11.18;2.92;;;;;;;23.30;64.78;99931.28;10295615;28;20165;-75
2023/08/06 00:39:37;;;;;;;7.07;2.70;;;;;;;23.26;65.75;99948.34;10296162;28;20050;-75
2023/08/06 00:44:39;;;;;;;7.50;2.80;;;;;;;23.19;65.51;99919.59;10294266;28;20527;-75
2023/08/06 00:49:40;;;;;;;7.85;3.00;;;;;;;23.34;65.53;99937.03;10295122;28;20051;-76
2023/08/06 00:54:41;;;;;;;8.23;3.22;;;;;;;23.18;65.46;99912.53;10295485;28;20425;-75
2023/08/06 00:59:42;;;;;;;4.38;2.42;;;;;;;23.54;62.60;99930.88;10295459;28;20049;-75
2023/08/06 01:04:42;;;;;;;5.15;2.20;;;;;;;23.69;60.34;99899.28;10295320;28;20034;-75
2023/08/06 01:10:21;;;;;;;13.38;2.90;;;;;;;24.04;61.48;99941.16;10294328;28;20043;-75
2023/08/06 01:15:30;;;;;;;5.75;2.38;;;;;;;23.81;62.92;99937.00;10294146;28;20047;-76
2023/08/06 01:20:31;;;;;;;10.38;3.08;;;;;;;23.41;63.53;99924.03;10294622;28;20038;-75
2023/08/06 01:26:11;;;;;;;15.32;3.10;;;;;;;23.16;67.72;99944.50;10294379;28;20058;-75
2023/08/06 01:31:22;;;;;;;13.60;3.53;;;;;;;22.44;69.46;99901.66;10301865;28;20085;-75
2023/08/06 01:36:23;;;;;;;9.23;3.67;;;;;;;22.37;68.73;99934.31;10293077;28;20058;-74
2023/08/06 01:41:24;;;;;;;16.38;3.55;;;;;;;22.36;69.67;99948.13;10294562;28;20050;-75
2023/08/06 01:46:24;;;;;;;8.00;3.28;;;;;;;21.79;70.02;99881.75;10293590;28;20043;-75
2023/08/06 01:51:25;;;;;;;8.50;3.40;;;;;;;21.81;70.82;99912.88;10293430;28;20491;-75
2023/08/06 01:56:26;;;;;;;7.10;3.70;;;;;;;21.84;71.61;99939.41;10291883;28;20053;-75
2023/08/06 02:01:27;;;;;;;46.80;6.25;;;;;;;21.63;72.19;99913.22;10293439;28;20102;-75
2023/08/06 02:06:27;;;;;;;21.75;4.50;;;;;;;21.69;72.37;99917.59;10292668;28;20137;-74
2023/08/06 02:11:28;;;;;;;35.00;4.95;;;;;;;21.89;72.17;99936.75;10292674;28;20042;-75
2023/08/06 02:16:29;;;;;;;8.98;3.35;;;;;;;21.63;72.00;99880.78;10292739;28;20082;-75
2023/08/06 02:21:30;;;;;;;24.75;8.10;;;;;;;22.32;70.78;99959.47;10292517;28;20047;-74
2023/08/06 02:26:30;;;;;;;57.42;12.20;;;;;;;22.46;69.96;99934.69;10290357;28;20050;-75
2023/08/06 02:31:31;;;;;;;49.35;10.60;;;;;;;22.60;70.29;99943.22;10292085;28;20053;-75
2023/08/06 02:36:32;;;;;;;18.60;6.43;;;;;;;22.79;68.92;99939.88;10292459;28;20069;-75
2023/08/06 02:41:33;;;;;;;29.80;6.28;;;;;;;23.05;67.54;99939.28;10291943;28;20096;-75
2023/08/06 02:46:33;;;;;;;19.40;4.57;;;;;;;23.47;66.25;99961.75;10290165;28;20565;-75
2023/08/06 02:51:34;;;;;;;23.40;4.68;;;;;;;23.68;65.59;99951.81;10290510;28;20054;-75
2023/08/06 02:56:35;;;;;;;21.00;3.92;;;;;;;24.32;64.92;99955.31;10291535;28;20483;-75
2023/08/06 03:01:36;;;;;;;34.72;3.95;;;;;;;25.50;61.78;99954.25;10290868;28;20043;-75
2023/08/06 03:06:36;;;;;;;10.88;3.15;;;;;;;25.98;58.85;99885.78;10293412;28;20049;-75
2023/08/06 03:11:37;;;;;;;10.48;3.17;;;;;;;27.08;56.70;99924.47;10298921;28;20495;-75
2023/08/06 03:16:38;;;;;;;17.10;3.17;;;;;;;28.18;55.09;99944.47;10298728;28;20133;-75
2023/08/06 03:21:39;;;;;;;10.48;3.10;;;;;;;28.73;53.23;99869.34;10298639;28;20050;-75
2023/08/06 03:26:39;;;;;;;5.22;2.70;;;;;;;29.53;51.16;99892.72;10298648;28;20068;-75
2023/08/06 03:31:41;;;;;;;6.43;2.60;;;;;;;30.99;49.31;99931.84;10298689;28;20043;-75
2023/08/06 03:36:41;;;;;;;7.65;2.85;;;;;;;31.18;47.56;99896.78;10298915;28;20117;-75
2023/08/06 03:41:42;;;;;;;7.72;3.20;;;;;;;32.02;46.94;99947.94;10297872;28;20466;-75
2023/08/06 03:46:43;;;;;;;8.48;3.13;;;;;;;32.24;45.50;99944.22;10296527;28;20051;-75
2023/08/06 03:51:43;;;;;;;9.10;3.60;;;;;;;32.58;44.21;99945.41;10297964;28;20065;-75
2023/08/06 03:56:44;;;;;;;18.38;3.95;;;;;;;33.55;42.73;99944.03;10297119;28;20043;-75
2023/08/06 04:01:45;;;;;;;5.50;2.72;;;;;;;33.41;40.86;99880.91;10297332;28;20035;-75
2023/08/06 04:06:46;;;;;;;12.13;3.10;;;;;;;34.07;40.20;99941.81;10297673;28;20050;-75
2023/08/06 04:11:46;;;;;;;7.40;2.22;;;;;;;34.27;39.43;99942.13;10297738;28;20066;-75
2023/08/06 04:16:47;;;;;;;10.43;2.80;;;;;;;34.13;40.13;99925.03;10296233;28;20127;-75
2023/08/06 04:21:48;;;;;;;8.57;2.80;;;;;;;34.72;38.28;99938.66;10296272;28;20035;-74
2023/08/06 04:26:49;;;;;;;4.78;2.47;;;;;;;34.64;39.00;99934.03;10307443;28;20472;-75
2023/08/06 04:31:49;;;;;;;7.37;2.87;;;;;;;34.75;38.12;99933.25;10336000;28;20053;-75
2023/08/06 04:36:50;;;;;;;7.00;2.65;;;;;;;34.01;39.42;99879.69;10336248;28;20060;-75
2023/08/06 04:41:51;;;;;;;6.38;2.60;;;;;;;34.39;37.98;99927.59;10336227;28;20034;-77
2023/08/06 04:46:51;;;;;;;7.47;3.10;;;;;;;34.12;38.31;99882.09;10320059;28;20133;-76
2023/08/06 04:51:52;;;;;;;10.32;2.90;;;;;;;33.88;36.28;99814.66;10276731;28;20046;-77
2023/08/06 04:56:53;;;;;;;7.15;3.00;;;;;;;34.03;36.61;99912.47;10295577;28;20046;-77
2023/08/06 05:01:54;;;;;;;3.75;2.97;;;;;;;33.90;37.44;99911.59;10295152;28;20049;-76
2023/08/06 05:06:54;;;;;;;5.40;3.25;;;;;;;33.66;37.15;99887.44;10294513;28;20043;-76
2023/08/06 05:11:55;;;;;;;8.32;2.83;;;;;;;33.12;37.24;99895.47;10295232;28;20038;-75
2023/08/06 05:16:56;;;;;;;8.30;2.65;;;;;;;32.57;37.85;99899.78;10294195;28;20043;-77
2023/08/06 05:21:56;;;;;;;3.25;2.28;;;;;;;32.03;38.08;99847.09;10294551;28;20518;-76
2023/08/06 05:26:57;;;;;;;4.38;2.42;;;;;;;32.50;37.86;99889.28;10294376;28;20046;-77
2023/08/06 05:31:58;;;;;;;11.65;2.63;;;;;;;32.43;38.01;99891.69;10293043;28;20039;-76
2023/08/06 05:36:59;;;;;;;4.63;1.98;;;;;;;32.46;37.15;99884.78;10293249;28;20125;-77
2023/08/06 05:41:59;;;;;;;21.15;2.40;;;;;;;32.65;37.46;99879.72;10293075;28;20051;-77
2023/08/06 05:47:01;;;;;;;9.20;2.15;;;;;;;32.58;36.67;99853.84;10293673;28;20054;-80
2023/08/06 05:52:02;;;;;;;10.82;2.42;;;;;;;32.84;36.28;99873.81;10293166;28;20070;-79
2023/08/06 05:57:03;;;;;;;7.07;2.27;;;;;;;33.05;36.26;99862.94;10292989;28;20513;-78
2023/08/06 06:02:04;;;;;;;17.60;2.17;;;;;;;33.34;35.46;99853.88;10291794;28;20411;-77
2023/08/06 06:07:05;;;;;;;8.25;1.90;;;;;;;33.39;34.81;99866.69;10292840;28;20043;-77
2023/08/06 06:12:06;;;;;;;9.30;2.20;;;;;;;32.96;35.54;99782.34;10293306;28;20038;-78
2023/08/06 06:17:07;;;;;;;7.47;2.22;;;;;;;33.47;35.12;99823.69;10292940;28;20037;-81
2023/08/06 06:22:08;;;;;;;17.50;2.45;;;;;;;33.63;34.36;99833.81;10289462;28;20410;-78
2023/08/06 06:27:08;;;;;;;7.63;1.80;;;;;;;33.72;34.42;99831.00;10289382;28;20202;-78
2023/08/06 06:32:09;;;;;;;8.25;2.70;;;;;;;33.59;33.44;99786.03;10291883;28;20049;-77
2023/08/06 06:37:10;;;;;;;10.50;2.90;;;;;;;33.95;33.65;99828.69;10292405;28;20496;-82
2023/08/06 06:42:11;;;;;;;6.45;2.35;;;;;;;34.15;33.36;99796.78;10290350;28;20038;-78
2023/08/06 06:47:11;;;;;;;7.07;2.38;;;;;;;34.34;32.69;99809.22;10290806;28;20054;-68
2023/08/06 06:52:12;;;;;;;20.52;2.90;;;;;;;34.35;32.69;99775.81;10291591;28;20503;-68
2023/08/06 06:57:13;;;;;;;14.35;2.45;;;;;;;34.55;32.81;99763.09;10291237;28;20054;-58
2023/08/06 07:02:14;;;;;;;22.23;2.50;;;;;;;34.88;31.46;99764.97;10290902;28;20434;-59
2023/08/06 07:07:14;;;;;;;12.00;2.53;;;;;;;35.05;31.13;99755.69;10291195;28;20043;-62
2023/08/06 07:12:15;;;;;;;16.70;2.80;;;;;;;35.17;30.16;99730.81;10290694;28;20507;-58
2023/08/06 07:17:16;;;;;;;13.52;3.10;;;;;;;35.43;30.11;99739.50;10291380;28;20046;-59
2023/08/06 07:22:16;;;;;;;10.85;2.28;;;;;;;35.34;28.65;99722.25;10290380;28;20150;-62
2023/08/06 07:27:17;;;;;;;17.73;2.55;;;;;;;35.26;28.67;99681.78;10289989;28;20047;-63
2023/08/06 07:32:18;;;;;;;10.90;2.70;;;;;;;35.84;28.47;99707.13;10290555;28;20050;-59
2023/08/06 07:37:19;;;;;;;21.00;3.30;;;;;;;35.97;27.79;99676.66;10290597;28;20062;-60
2023/08/06 07:42:20;;;;;;;9.02;2.28;;;;;;;36.17;27.62;99697.75;10290190;28;20045;-61
2023/08/06 07:47:22;;;;;;;10.85;3.00;;;;;;;36.04;27.64;99649.22;10289839;28;20051;-58
2023/08/06 07:52:22;;;;;;;17.73;3.47;;;;;;;36.24;26.97;99677.78;10290057;28;20043;-59
2023/08/06 07:57:23;;;;;;;8.00;2.97;;;;;;;36.38;27.34;99677.31;10296040;28;20047;-58
2023/08/06 08:02:24;;;;;;;12.73;3.00;;;;;;;36.49;26.87;99661.78;10297768;28;20043;-60
2023/08/06 08:07:27;;;;;;;20.80;5.37;;;;;;;36.76;27.39;99657.28;10296001;28;20135;-59
2023/08/06 08:12:28;;;;;;;15.95;3.55;;;;;;;37.18;27.21;99668.53;10296674;28;20043;-60
2023/08/06 08:17:28;;;;;;;12.60;3.17;;;;;;;37.29;26.53;99665.19;10295657;28;20109;-60
2023/08/06 08:22:29;;;;;;;12.37;2.80;;;;;;;37.32;26.54;99656.94;10296950;28;20384;-63
2023/08/06 08:27:30;;;;;;;9.33;3.13;;;;;;;36.93;26.60;99573.84;10296622;28;20042;-74
2023/08/06 08:32:31;;;;;;;18.13;3.33;;;;;;;37.55;26.25;99654.28;10296950;28;20133;-61
2023/08/06 08:37:32;;;;;;;30.67;4.17;;;;;;;37.74;26.99;99636.78;10296487;28;20561;-71
2023/08/06 08:42:33;;;;;;;22.27;3.97;;;;;;;37.85;26.57;99618.38;10295450;28;20054;-70
2023/08/06 08:47:34;;;;;;;27.03;4.13;;;;;;;37.30;26.29;99523.56;10295791;28;20046;-71
2023/08/06 08:52:36;;;;;;;29.80;4.93;;;;;;;37.87;26.39;99591.09;10294032;28;20047;-72
2023/08/06 08:57:37;;;;;;;23.55;3.67;;;;;;;37.80;26.84;99545.81;10296113;28;20281;-72
2023/08/06 09:02:39;;;;;;;23.47;3.73;;;;;;;38.35;26.32;99604.53;10295293;28;20045;-70
2023/08/06 09:07:45;;;;;;;17.88;3.42;;;;;;;38.45;26.71;99592.84;10295256;28;20070;-65
2023/08/06 09:12:48;;;;;;;14.98;3.35;;;;;;;38.39;26.79;99568.56;10294823;28;20130;-72
2023/08/06 09:17:49;;;;;;;29.50;4.35;;;;;;;38.37;26.89;99568.91;10295199;28;20475;-69
2023/08/06 09:28:00;;;;;;;31.95;4.50;;;;;;;38.16;27.45;99480.66;11870352;23;20070;-73
2023/08/06 09:33:01;;;;;;;28.43;5.00;;;;;;;38.56;26.33;99541.09;10293034;28;20046;-68
2023/08/06 09:38:11;;;;;;;21.33;4.32;;;;;;;38.47;26.57;99498.13;10293669;28;20050;-66
2023/08/06 09:43:12;;;;;;;27.42;3.95;;;;;;;38.73;26.81;99538.91;10293250;28;20051;-68
2023/08/06 09:48:13;;;;;;;;;;;;;;;39.04;25.28;99546.03;10294019;28;20038;-70
2023/08/06 09:53:14;;;;;;;19.43;4.07;;;;;;;38.78;25.63;99527.47;10293526;28;19914;-69
2023/08/06 09:58:15;;;;;;;16.30;3.77;;;;;;;38.74;26.37;99529.38;10293978;28;20038;-71
2023/08/06 10:03:17;;;;;;;15.60;3.23;;;;;;;38.65;25.81;99506.66;10294066;28;20469;-66
2023/08/06 10:08:18;;;;;;;19.05;3.75;;;;;;;38.97;25.31;99510.66;10292320;28;20039;-67
2023/08/06 10:13:22;;;;;;;16.93;3.50;;;;;;;38.57;24.42;99450.31;10290986;28;20046;-70
2023/08/06 10:18:23;;;;;;;20.48;3.33;;;;;;;38.95;25.86;99512.19;10290678;28;20031;-64
2023/08/06 10:23:34;;;;;;;21.90;3.88;;;;;;;39.08;25.86;99493.31;10291335;28;20402;-66
2023/08/06 10:28:37;;;;;;;22.05;3.67;;;;;;;39.16;26.30;99498.56;10292520;28;20059;-59
2023/08/06 10:33:47;;;;;;;16.55;3.65;;;;;;;39.09;24.79;99489.34;10292324;28;20042;-62
2023/08/06 10:38:50;;;;;;;20.23;3.50;;;;;;;38.77;25.91;99409.25;10291404;28;20428;-59
2023/08/06 10:43:51;;;;;;;22.42;3.70;;;;;;;39.29;25.70;99473.28;10291854;28;20051;-61
2023/08/06 10:54:09;;;;;;;22.77;3.50;;;;;;;39.14;26.14;99466.78;11871973;23;20153;-60
2023/08/06 10:59:10;;;;;;;28.70;3.58;;;;;;;39.02;25.49;99471.44;10330851;28;20034;-63
2023/08/06 11:04:15;;;;;;;18.03;3.60;;;;;;;38.53;25.86;99386.44;10331057;28;20044;-58
2023/08/06 11:09:16;;;;;;;52.95;4.97;;;;;;;38.42;26.08;99382.75;10332178;28;20031;-66
2023/08/06 11:14:17;;;;;;;17.00;3.03;;;;;;;38.85;26.11;99424.84;10330837;28;20042;-71
2023/08/06 11:19:18;;;;;;;21.00;3.70;;;;;;;38.57;26.51;99384.50;10331414;28;20053;-69
2023/08/06 11:24:19;;;;;;;24.00;3.13;;;;;;;38.57;25.71;99395.59;10331312;28;20042;-73
2023/08/06 11:29:20;;;;;;;18.07;3.50;;;;;;;38.91;26.07;99428.88;10336522;28;20568;-69
2023/08/06 11:34:21;;;;;;;25.05;4.00;;;;;;;38.75;25.69;99392.22;10339483;28;20453;-71
2023/08/06 11:39:22;;;;;;;27.20;3.70;;;;;;;38.82;25.83;99389.50;10337999;28;20039;-66
2023/08/06 11:44:24;;;;;;;23.50;4.30;;;;;;;39.01;25.80;99400.44;10338978;28;20045;-70
2023/08/06 11:49:48;;;;;;;23.88;3.45;;;;;;;39.20;25.12;99404.94;10339205;28;20561;-67
2023/08/06 11:55:06;;;;;;;19.25;3.45;;;;;;;39.02;24.19;99404.78;10337642;28;20059;-68
2023/08/06 12:00:09;;;;;;;22.75;3.80;;;;;;;38.91;24.31;99381.69;10338202;28;20042;-72
2023/08/06 12:05:15;;;;;;;31.05;3.97;;;;;;;38.70;24.76;99364.78;10338814;28;20066;-67
2023/08/06 12:10:19;;;;;;;16.77;3.45;;;;;;;38.64;25.28;99366.31;10338175;28;20042;-68
2023/08/06 12:15:20;;;;;;;20.48;3.55;;;;;;;38.81;25.40;99374.81;10337486;28;20038;-70
2023/08/06 12:20:21;;;;;;;28.30;5.10;;;;;;;38.34;25.57;99320.78;10337256;28;20490;-67
2023/08/06 12:25:23;;;;;;;27.67;4.10;;;;;;;38.31;25.64;99313.22;10335984;28;20043;-70
2023/08/06 12:30:24;;;;;;;24.95;4.05;;;;;;;38.79;26.16;99368.84;10337267;28;20518;-67
2023/08/06 12:35:25;;;;;;;25.40;3.90;;;;;;;38.65;25.73;99368.69;10336608;28;20047;-54
2023/08/06 12:40:26;;;;;;;20.48;3.50;;;;;;;38.56;25.85;99355.16;10335171;28;20038;-70
2023/08/06 12:45:27;;;;;;;15.93;3.38;;;;;;;38.71;25.87;99366.38;10336832;28;20045;-70
2023/08/06 12:50:28;;;;;;;16.43;3.60;;;;;;;38.58;25.80;99357.53;10336386;28;20129;-72
2023/08/06 12:55:29;;;;;;;20.90;3.90;;;;;;;38.09;26.39;99294.78;10331090;28;20055;-74
2023/08/06 13:00:30;;;;;;;21.05;3.33;;;;;;;38.18;26.94;99336.88;10314232;28;20042;-71
2023/08/06 13:05:31;;;;;;;16.93;3.80;;;;;;;38.22;27.14;99356.31;10313557;28;20050;-72
2023/08/06 13:10:31;;;;;;;19.60;4.90;;;;;;;37.65;27.19;99262.13;10299833;28;20516;-72
2023/08/06 13:15:32;;;;;;;25.97;4.47;;;;;;;38.16;27.18;99341.19;10313870;28;20042;-72
2023/08/06 13:20:33;;;;;;;20.27;4.40;;;;;;;37.89;27.73;99307.97;10334338;28;20516;-74
2023/08/06 13:25:36;;;;;;;34.47;4.57;;;;;;;38.01;28.95;99326.34;10335265;28;20449;-73
2023/08/06 13:30:41;;;;;;;31.08;5.10;;;;;;;37.95;29.21;99328.66;10334193;28;20042;-75
2023/08/06 13:35:42;;;;;;;33.35;4.47;;;;;;;37.82;29.11;99321.75;10334335;28;20093;-74
2023/08/06 13:40:44;;;;;;;31.30;5.33;;;;;;;37.81;29.08;99317.34;10326585;28;20066;-74
2023/08/06 13:45:45;;;;;;;29.13;4.65;;;;;;;37.76;29.04;99328.78;10294334;28;20058;-75
2023/08/06 13:50:45;;;;;;;39.50;4.90;;;;;;;37.71;29.42;99323.56;10285498;28;20051;-76
2023/08/06 13:55:46;;;;;;;33.90;5.07;;;;;;;37.47;30.48;99307.03;10293710;28;20054;-74
2023/08/06 14:00:47;;;;;;;29.60;5.10;;;;;;;37.44;30.41;99316.03;10289687;28;20038;-76
2023/08/06 14:05:48;;;;;;;38.03;4.87;;;;;;;37.14;30.60;99282.78;10291585;28;20045;-76
2023/08/06 14:10:50;;;;;;;45.13;4.97;;;;;;;37.08;31.41;99311.94;10293274;28;20047;-74
2023/08/06 14:15:51;;;;;;;38.38;5.25;;;;;;;37.18;31.48;99310.50;10314752;28;20042;-76
2023/08/06 14:20:52;;;;;;;41.80;5.47;;;;;;;36.71;31.95;99237.78;10297443;28;20050;-73
2023/08/06 14:25:52;;;;;;;27.87;5.33;;;;;;;37.04;32.40;99318.59;10291508;28;20150;-75
2023/08/06 14:30:53;;;;;;;47.00;6.40;;;;;;;36.06;33.08;99188.03;10290828;28;20042;-72
2023/08/06 14:35:54;;;;;;;36.90;5.50;;;;;;;36.68;32.77;99306.91;10291173;28;20049;-72
2023/08/06 14:40:54;;;;;;;39.47;5.77;;;;;;;36.19;33.09;99253.03;10296833;28;20050;-74
2023/08/06 14:45:55;;;;;;;46.00;5.13;;;;;;;36.08;33.14;99258.38;10290458;28;20053;-75
2023/08/06 14:50:56;;;;;;;44.28;4.95;;;;;;;36.30;33.40;99306.59;10290431;28;20145;-72
2023/08/06 14:55:57;;;;;;;16.10;3.70;;;;;;;35.74;33.09;99239.91;10290611;28;20046;-76
2023/08/06 15:00:57;;;;;;;28.75;4.15;;;;;;;35.62;32.89;99247.16;10294373;28;20038;-73
2023/08/06 15:05:58;;;;;;;37.92;5.70;;;;;;;35.98;32.73;99324.47;10298229;28;20039;-73
2023/08/06 15:11:02;;;;;;;60.33;5.45;;;;;;;35.63;32.89;99298.50;10301636;28;20487;-73
2023/08/06 15:16:03;;;;;;;38.17;5.20;;;;;;;35.16;33.15;99255.22;10315890;28;20050;-71
2023/08/06 15:21:04;;;;;;;22.77;4.78;;;;;;;35.13;32.67;99274.44;10339760;28;20053;-73
2023/08/06 15:26:04;;;;;;;35.38;5.20;;;;;;;35.36;32.17;99330.63;10339589;28;20046;-73
2023/08/06 15:31:08;;;;;;;35.20;5.05;;;;;;;34.96;32.55;99303.97;10338538;28;20046;-76
2023/08/06 15:36:08;;;;;;;19.52;4.38;;;;;;;35.03;32.36;99324.63;10338505;28;20038;-72
2023/08/06 15:41:09;;;;;;;25.73;4.35;;;;;;;34.84;32.63;99328.91;10338786;28;20042;-74
2023/08/06 15:46:10;;;;;;;22.30;3.83;;;;;;;34.71;32.42;99330.94;10338903;28;20046;-73
2023/08/06 15:51:11;;;;;;;24.90;3.53;;;;;;;34.10;32.70;99273.34;10337953;28;20574;-72
2023/08/06 15:56:12;;;;;;;27.05;4.03;;;;;;;34.37;32.50;99348.91;10338215;28;20062;-74
2023/08/06 16:01:14;;;;;;;21.65;3.78;;;;;;;34.11;32.70;99327.31;10337637;28;20510;-74
2023/08/06 16:06:14;;;;;;;25.88;4.18;;;;;;;34.13;32.66;99349.00;10337801;28;20046;-72
2023/08/06 16:11:15;;;;;;;17.50;3.30;;;;;;;33.94;32.82;99347.66;10337346;28;20038;-73
2023/08/06 16:16:16;;;;;;;31.20;4.22;;;;;;;33.64;32.46;99339.69;10336380;28;20042;-72
2023/08/06 16:21:17;;;;;;;14.48;3.17;;;;;;;33.45;32.22;99328.47;10336691;28;20039;-76
2023/08/06 16:26:18;;;;;;;16.58;2.58;;;;;;;33.49;32.23;99361.59;10337090;28;20069;-72
2023/08/06 16:31:20;;;;;;;18.10;2.72;;;;;;;33.32;32.04;99357.91;10337471;28;20038;-73
2023/08/06 16:36:21;;;;;;;19.27;3.30;;;;;;;33.18;31.87;99363.00;10336727;28;20038;-73
2023/08/06 16:41:22;;;;;;;15.05;2.60;;;;;;;33.08;31.78;99361.47;10336063;28;20061;-73
2023/08/06 16:46:23;;;;;;;11.68;2.70;;;;;;;32.81;31.54;99346.38;10336296;28;20137;-72
2023/08/06 16:51:24;;;;;;;17.23;2.63;;;;;;;32.62;31.65;99344.16;10335448;28;20148;-72
2023/08/06 16:56:25;;;;;;;17.35;2.63;;;;;;;32.52;32.66;99361.09;10335722;28;20069;-73
2023/08/06 17:01:26;;;;;;;18.90;2.83;;;;;;;32.46;32.52;99371.50;10315846;28;20137;-72
2023/08/06 17:06:27;;;;;;;13.27;2.78;;;;;;;32.31;32.75;99366.59;10295395;28;20142;-71
2023/08/06 17:11:30;;;;;;;16.27;2.28;;;;;;;32.21;33.37;99384.28;10305802;28;20093;-71
2023/08/06 17:16:31;;;;;;;21.73;3.00;;;;;;;32.02;33.22;99359.25;10295408;28;20039;-71
2023/08/06 17:21:33;;;;;;;13.65;2.72;;;;;;;31.91;33.87;99371.75;10305255;28;20498;-71
2023/08/06 17:26:34;;;;;;;10.43;2.22;;;;;;;31.63;33.90;99350.28;10292982;28;20070;-70
2023/08/06 17:31:35;;;;;;;12.73;2.75;;;;;;;31.65;34.36;99383.72;10298779;28;20066;-70
2023/08/06 17:36:35;;;;;;;20.20;2.92;;;;;;;31.07;35.33;99305.69;10310002;28;20046;-69
2023/08/06 17:41:36;;;;;;;15.05;3.22;;;;;;;31.37;35.92;99367.69;10296152;28;20100;-69
2023/08/06 17:46:37;;;;;;;15.85;3.35;;;;;;;31.27;36.70;99379.03;10307870;28;20080;-70
2023/08/06 17:51:37;;;;;;;15.90;3.15;;;;;;;30.36;37.39;99243.19;10314985;28;20049;-70
2023/08/06 17:56:38;;;;;;;16.90;3.42;;;;;;;31.15;37.76;99371.47;10333987;28;20058;-69
2023/08/06 18:01:39;;;;;;;14.77;2.85;;;;;;;30.90;37.75;99344.94;10332749;28;20042;-69
2023/08/06 18:06:40;;;;;;;20.60;3.78;;;;;;;30.09;38.52;99242.38;10312217;28;20046;-68
2023/08/06 18:11:41;;;;;;;14.75;3.13;;;;;;;30.65;38.53;99354.81;10291855;28;20042;-70
2023/08/06 18:16:42;;;;;;;17.35;3.63;;;;;;;30.44;39.23;99336.31;10294517;28;20046;-70
2023/08/06 18:21:43;;;;;;;19.35;3.80;;;;;;;30.36;39.07;99356.31;10320597;28;20090;-71
2023/08/06 18:26:44;;;;;;;21.27;4.28;;;;;;;30.40;39.41;99370.19;10294201;28;20053;-70
2023/08/06 18:31:46;;;;;;;21.23;4.07;;;;;;;30.30;39.03;99352.13;10320337;28;20050;-70
2023/08/06 18:36:46;;;;;;;26.92;3.92;;;;;;;30.22;39.25;99356.50;10290211;28;20525;-70
2023/08/06 18:41:47;;;;;;;15.25;3.97;;;;;;;29.72;39.73;99293.16;10293179;28;20050;-70
2023/08/06 18:46:48;;;;;;;22.92;3.50;;;;;;;30.05;40.07;99367.41;10289688;28;20168;-70
2023/08/06 18:51:49;;;;;;;17.13;3.55;;;;;;;29.72;40.36;99332.28;10301805;28;20137;-69
2023/08/06 18:56:49;;;;;;;21.70;2.83;;;;;;;29.77;40.75;99353.22;10291834;28;20058;-69
2023/08/06 19:01:50;;;;;;;13.40;3.13;;;;;;;29.58;40.73;99342.50;10301171;28;20053;-69
2023/08/06 19:06:51;;;;;;;11.35;3.28;;;;;;;29.40;41.41;99327.97;10293175;28;20050;-69
2023/08/06 19:11:52;;;;;;;11.27;2.97;;;;;;;28.96;41.77;99266.88;10291286;28;20456;-69
2023/08/06 19:16:52;;;;;;;12.93;3.60;;;;;;;29.36;42.22;99354.38;10290373;28;20043;-69
2023/08/06 19:21:53;;;;;;;15.10;3.80;;;;;;;28.70;42.72;99255.03;10291745;28;20046;-69
2023/08/06 19:26:54;;;;;;;13.65;3.20;;;;;;;28.97;43.14;99309.47;10288981;28;20461;-69
2023/08/06 19:31:55;;;;;;;13.98;3.70;;;;;;;29.11;43.65;99336.75;10290295;28;20039;-69
2023/08/06 19:36:55;;;;;;;12.00;3.35;;;;;;;28.65;43.87;99278.63;10300501;28;20043;-70
2023/08/06 19:41:56;;;;;;;12.75;3.58;;;;;;;28.43;44.35;99263.09;10291354;28;20081;-69
2023/08/06 19:46:57;;;;;;;17.67;3.95;;;;;;;28.85;44.75;99334.69;10290368;28;20053;-69
2023/08/06 19:51:58;;;;;;;17.00;3.15;;;;;;;28.80;45.19;99334.00;10298056;28;20062;-69
2023/08/06 19:56:59;;;;;;;15.80;3.70;;;;;;;28.63;45.55;99315.59;10298117;28;20051;-69
2023/08/06 20:01:59;;;;;;;16.77;4.03;;;;;;;28.51;46.00;99310.72;10297127;28;20042;-69
2023/08/06 20:07:00;;;;;;;19.63;3.67;;;;;;;28.51;46.35;99315.34;10297642;28;20553;-69
2023/08/06 20:12:01;;;;;;;19.23;3.80;;;;;;;28.48;46.54;99324.16;10297713;28;20047;-69
2023/08/06 20:17:04;;;;;;;21.73;4.20;;;;;;;28.39;46.85;99318.59;10297021;28;20035;-69
2023/08/06 20:22:05;;;;;;;25.58;3.83;;;;;;;27.87;47.46;99258.97;10297548;28;20067;-69
2023/08/06 20:27:06;;;;;;;24.67;4.80;;;;;;;28.00;47.84;99287.34;10297074;28;20113;-69
2023/08/06 20:32:07;;;;;;;31.67;6.40;;;;;;;27.94;48.50;99285.84;10297101;28;20074;-69
2023/08/06 20:37:08;;;;;;;22.67;5.03;;;;;;;28.08;48.90;99321.28;10307228;28;20478;-68
2023/08/06 20:42:09;;;;;;;21.23;4.93;;;;;;;27.25;49.46;99204.16;10296262;28;20073;-68
2023/08/06 20:47:09;;;;;;;24.17;5.40;;;;;;;27.65;50.10;99280.75;10296374;28;20046;-69
2023/08/06 20:52:10;;;;;;;23.98;5.15;;;;;;;27.89;50.52;99321.47;10295284;28;20069;-68
2023/08/06 20:57:11;;;;;;;24.73;5.63;;;;;;;27.82;51.06;99331.97;10295571;28;20059;-69
2023/08/06 21:02:12;;;;;;;27.35;5.40;;;;;;;27.59;51.82;99306.53;10294388;28;20046;-68
2023/08/06 21:07:13;;;;;;;19.77;4.13;;;;;;;27.55;52.42;99311.78;10295474;28;20047;-69
2023/08/06 21:12:14;;;;;;;20.00;4.63;;;;;;;27.43;53.32;99315.06;10295179;28;20133;-68
2023/08/06 21:17:14;;;;;;;23.58;4.90;;;;;;;27.37;54.25;99307.25;10295120;28;20054;-68
2023/08/06 21:22:15;;;;;;;23.30;4.53;;;;;;;27.28;54.61;99307.16;10294399;28;20053;-68
2023/08/06 21:27:16;;;;;;;18.50;4.20;;;;;;;27.22;55.24;99294.75;10294389;28;20446;-68
2023/08/06 21:32:17;;;;;;;16.40;3.47;;;;;;;27.15;56.37;99300.63;10294275;28;20045;-68
2023/08/06 21:37:17;;;;;;;16.02;3.70;;;;;;;26.67;57.30;99234.78;10293660;28;20053;-68
2023/08/06 21:42:18;;;;;;;17.58;3.78;;;;;;;27.04;58.31;99305.44;10294054;28;20038;-68
2023/08/06 21:47:19;;;;;;;17.13;3.88;;;;;;;26.49;58.79;99228.28;10294299;28;20043;-69
2023/08/06 21:52:19;;;;;;;16.77;4.20;;;;;;;26.99;60.03;99319.16;10293746;28;20142;-68
2023/08/06 21:57:20;;;;;;;22.20;3.55;;;;;;;26.98;60.63;99316.72;10293656;28;20055;-68
2023/08/06 22:02:21;;;;;;;18.38;3.85;;;;;;;26.64;61.94;99266.16;10293827;28;20561;-68
2023/08/06 22:07:22;;;;;;;20.38;3.85;;;;;;;26.89;62.51;99307.63;10293162;28;20050;-69
2023/08/06 22:12:22;;;;;;;18.55;4.10;;;;;;;26.72;64.17;99289.16;10291829;28;20038;-68
2023/08/06 22:17:23;;;;;;;25.58;4.75;;;;;;;26.65;65.26;99284.09;10292204;28;20042;-67
2023/08/06 22:22:24;;;;;;;19.88;3.88;;;;;;;26.67;65.68;99298.22;10291991;28;20050;-68
2023/08/06 22:27:25;;;;;;;19.83;4.50;;;;;;;26.64;66.24;99294.19;10291688;28;20054;-69
2023/08/06 22:32:28;;;;;;;19.42;4.00;;;;;;;26.60;66.37;99286.94;10292625;28;20045;-68
2023/08/06 22:37:29;;;;;;;24.83;4.78;;;;;;;26.15;66.84;99222.06;10290567;28;20114;-68
2023/08/06 22:42:31;;;;;;;18.02;4.30;;;;;;;26.63;66.98;99298.03;10291977;28;20043;-69
2023/08/06 22:47:33;;;;;;;19.83;4.57;;;;;;;26.68;67.23;99299.84;10291862;28;20046;-68
2023/08/06 22:52:33;;;;;;;19.77;4.72;;;;;;;26.56;67.19;99275.81;10292107;28;20050;-69
2023/08/06 22:57:34;;;;;;;22.33;4.47;;;;;;;26.61;67.17;99288.53;10291465;28;20069;-68
2023/08/06 23:02:37;;;;;;;22.58;4.47;;;;;;;26.67;67.41;99295.50;10292636;28;20447;-68
2023/08/06 23:07:38;;;;;;;24.63;4.88;;;;;;;26.64;67.39;99294.19;10291519;28;20081;-68
2023/08/06 23:12:39;;;;;;;24.23;4.82;;;;;;;26.60;67.97;99304.06;10290043;28;20078;-68
2023/08/06 23:17:39;;;;;;;20.30;5.20;;;;;;;26.36;68.82;99279.69;10291706;28;20049;-68
2023/08/06 23:22:41;;;;;;;10.88;4.20;;;;;;;26.26;69.53;99284.47;10302550;28;20053;-68